Time;durP1;ratioP1;P1;durP2;ratioP2;P2;SDS_P1;SDS_P2;PMS_P1;PMS_P2;Temp;Humidity;BMP_temperature;BMP_pressure;BME280_temperature;BME280_humidity;BME280_pressure;Samples;Min_cycle;Max_cycle;Signal;HPM_P1;HPM_P2
2022/01/17 00:02:21;;;;;;;19.98;2.83;;;5.00;99.90;;;;;;4894042;29;20748;-83
2022/01/17 00:04:48;;;;;;;23.05;3.58;;;4.90;99.90;;;;;;4893647;29;20459;-82
2022/01/17 00:07:14;;;;;;;21.80;2.47;;;6.50;99.90;;;;;;4893894;29;20123;-82
2022/01/17 00:09:40;;;;;;;28.00;4.05;;;6.00;99.90;;;;;;4894071;29;20056;-82
2022/01/17 00:12:06;;;;;;;23.80;3.63;;;5.50;99.90;;;;;;4911998;29;20063;-83
2022/01/17 00:14:39;;;;;;;19.75;3.05;;;5.50;99.90;;;;;;4909780;29;20056;-83
2022/01/17 00:17:22;;;;;;;26.07;3.00;;;6.30;99.90;;;;;;4893776;29;20051;-83
2022/01/17 00:19:53;;;;;;;22.52;3.10;;;6.20;99.90;;;;;;4893272;29;20059;-83
2022/01/17 00:22:20;;;;;;;18.58;2.50;;;5.60;99.90;;;;;;4897355;29;20062;-83
2022/01/17 00:24:47;;;;;;;21.23;2.55;;;6.50;99.90;;;;;;4897770;29;20484;-83
2022/01/17 00:27:13;;;;;;;19.63;2.95;;;6.90;99.90;;;;;;4896768;29;20059;-83
2022/01/17 00:29:39;;;;;;;22.33;3.10;;;6.80;99.90;;;;;;4914544;29;20056;-83
2022/01/17 00:32:05;;;;;;;18.90;2.85;;;5.50;99.90;;;;;;4897271;29;20060;-83
2022/01/17 00:34:31;;;;;;;27.38;3.38;;;5.50;99.90;;;;;;4895719;29;20056;-82
2022/01/17 00:36:57;;;;;;;21.88;2.80;;;5.50;99.90;;;;;;4897101;29;20110;-83
2022/01/17 00:39:24;;;;;;;24.35;3.53;;;6.30;99.90;;;;;;4896901;29;20127;-83
2022/01/17 00:41:50;;;;;;;29.88;3.60;;;6.00;99.90;;;;;;4896870;29;20476;-82
2022/01/17 00:44:20;;;;;;;16.85;3.40;;;5.90;99.90;;;;;;4914312;29;20048;-83
2022/01/17 00:46:46;;;;;;;23.35;3.33;;;5.60;99.90;;;;;;4896902;29;20108;-83
2022/01/17 00:49:12;;;;;;;25.02;3.42;;;5.40;99.90;;;;;;4896158;29;20056;-83
2022/01/17 00:51:37;;;;;;;19.70;3.03;;;6.40;99.90;;;;;;4896741;29;20052;-83
2022/01/17 00:54:03;;;;;;;22.05;3.78;;;5.30;99.90;;;;;;4896852;29;20052;-83
2022/01/17 00:56:29;;;;;;;21.55;3.67;;;5.20;99.90;;;;;;4895553;29;20048;-83
2022/01/17 00:58:54;;;;;;;19.83;3.60;;;5.10;99.90;;;;;;4896798;29;20054;-83
2022/01/17 01:01:20;;;;;;;24.88;3.38;;;5.10;99.90;;;;;;4896465;29;20263;-83
2022/01/17 01:03:46;;;;;;;26.77;3.05;;;5.10;99.90;;;;;;4895669;29;20079;-83
2022/01/17 01:06:12;;;;;;;19.40;2.83;;;5.10;99.90;;;;;;4914072;29;20417;-83
2022/01/17 01:08:38;;;;;;;31.45;3.50;;;5.10;99.90;;;;;;4895713;29;20044;-83
2022/01/17 01:11:04;;;;;;;30.50;3.20;;;5.10;99.90;;;;;;4896712;29;20048;-82
2022/01/17 01:13:31;;;;;;;19.23;3.10;;;5.60;99.90;;;;;;4896475;29;20047;-83
2022/01/17 01:16:10;;;;;;;24.77;3.67;;;5.10;99.90;;;;;;4912396;29;20059;-82
2022/01/17 01:19:06;;;;;;;17.58;2.53;;;5.10;99.90;;;;;;4896465;29;20449;-82
2022/01/17 01:29:20;;;;;;;17.35;2.72;;;5.20;99.90;;;;;;4895583;29;20123;-83
2022/01/17 01:31:56;;;;;;;23.40;3.78;;;5.20;99.90;;;;;;4894751;29;20052;-83
2022/01/17 01:34:32;;;;;;;26.63;3.28;;;5.20;99.90;;;;;;4895260;29;20138;-83
2022/01/17 01:36:58;;;;;;;26.35;3.45;;;5.20;99.90;;;;;;4895045;29;20063;-83
2022/01/17 01:39:24;;;;;;;19.63;2.63;;;5.60;99.90;;;;;;4895887;29;20052;-83
2022/01/17 01:41:52;;;;;;;22.45;3.28;;;5.30;99.90;;;;;;4896100;29;20056;-83
2022/01/17 01:44:20;;;;;;;26.40;3.58;;;5.30;99.90;;;;;;4895073;29;20071;-83
2022/01/17 01:46:47;;;;;;;19.42;2.83;;;5.50;99.90;;;;;;4895735;29;20090;-83
2022/01/17 01:49:14;;;;;;;26.00;3.08;;;5.50;99.90;;;;;;4895579;29;20172;-83
2022/01/17 01:51:41;;;;;;;26.67;3.13;;;6.00;99.90;;;;;;4895021;29;20468;-83
2022/01/17 01:54:07;;;;;;;23.15;2.78;;;5.30;99.90;;;;;;4913026;29;20102;-83
2022/01/17 01:56:36;;;;;;;18.83;2.33;;;5.90;99.90;;;;;;4895767;29;20092;-83
2022/01/17 01:59:03;;;;;;;22.02;2.70;;;5.00;99.90;;;;;;4894615;29;20052;-83
2022/01/17 02:01:29;;;;;;;23.13;2.58;;;5.40;99.90;;;;;;4895191;29;20123;-83
2022/01/17 02:03:54;;;;;;;23.00;3.58;;;5.00;99.90;;;;;;4895270;29;20552;-83
2022/01/17 02:06:20;;;;;;;23.02;3.17;;;5.00;99.90;;;;;;4911750;29;20052;-83
2022/01/17 02:08:46;;;;;;;22.85;3.20;;;5.00;99.90;;;;;;4896062;29;20071;-82
2022/01/17 02:11:12;;;;;;;20.52;2.95;;;5.70;99.90;;;;;;4895375;29;20385;-83
2022/01/17 02:13:39;;;;;;;26.08;2.92;;;5.80;99.90;;;;;;4895305;29;20079;-83
2022/01/17 02:16:10;;;;;;;18.88;3.25;;;6.10;99.90;;;;;;4895396;29;20051;-83
2022/01/17 02:18:36;;;;;;;22.90;3.45;;;5.40;99.90;;;;;;4895458;29;20048;-82
2022/01/17 02:23:40;;;;;;;37.47;5.72;;;6.10;99.90;;;;;;4895580;29;20055;-83
2022/01/17 02:26:06;;;;;;;25.33;4.05;;;5.40;99.90;;;;;;4894586;29;20056;-83
2022/01/17 02:28:33;;;;;;;31.15;4.05;;;5.80;99.90;;;;;;4895301;29;20048;-83
2022/01/17 02:31:00;;;;;;;23.63;3.22;;;4.90;99.90;;;;;;4894184;29;20066;-83
2022/01/17 02:33:27;;;;;;;22.58;2.80;;;5.20;99.90;;;;;;4894581;29;20079;-83
2022/01/17 02:35:52;;;;;;;26.58;3.22;;;4.90;99.90;;;;;;4894668;29;20052;-83
2022/01/17 02:38:18;;;;;;;25.63;3.00;;;4.80;99.90;;;;;;4894891;29;20168;-82
2022/01/17 02:40:44;;;;;;;26.77;3.45;;;5.20;99.90;;;;;;4894556;29;20095;-82
2022/01/17 02:43:09;;;;;;;28.55;3.60;;;5.30;99.90;;;;;;4894941;29;20044;-83
2022/01/17 02:45:38;;;;;;;24.63;3.60;;;4.90;99.90;;;;;;4893802;29;20055;-83
2022/01/17 02:48:09;;;;;;;24.30;3.22;;;4.90;99.90;;;;;;4911455;29;20054;-82
2022/01/17 02:50:35;;;;;;;25.95;3.20;;;5.00;99.90;;;;;;4894749;29;20393;-82
2022/01/17 02:53:03;;;;;;;29.77;3.50;;;4.90;99.90;;;;;;4895095;29;20604;-82
2022/01/17 02:55:29;;;;;;;24.88;2.88;;;5.00;99.90;;;;;;4893742;29;20044;-83
2022/01/17 02:57:56;;;;;;;27.02;3.20;;;5.00;99.90;;;;;;4894742;29;20048;-83
2022/01/17 03:00:21;;;;;;;17.80;3.40;;;5.00;99.90;;;;;;4894203;29;20563;-83
2022/01/17 03:02:49;;;;;;;28.13;4.22;;;5.00;99.90;;;;;;4893862;29;20052;-83
2022/01/17 03:05:16;;;;;;;23.08;2.78;;;5.10;99.90;;;;;;4893884;29;20048;-82
2022/01/17 03:07:42;;;;;;;23.98;3.35;;;5.10;99.90;;;;;;4911918;29;20350;-82
2022/01/17 03:10:16;;;;;;;24.17;3.33;;;5.60;99.90;;;;;;4894537;29;20146;-82
2022/01/17 03:12:42;;;;;;;32.58;3.30;;;5.20;99.90;;;;;;4894764;29;20056;-82
2022/01/17 03:15:08;;;;;;;17.55;2.90;;;5.90;99.90;;;;;;4897587;29;20051;-82
2022/01/17 03:17:34;;;;;;;25.38;3.10;;;5.20;99.90;;;;;;4912440;29;20051;-82
2022/01/17 03:19:59;;;;;;;22.20;3.13;;;5.20;99.90;;;;;;4913293;29;20058;-82
2022/01/17 03:22:25;;;;;;;27.05;3.30;;;5.20;99.90;;;;;;4912442;29;20052;-82
2022/01/17 03:24:51;;;;;;;28.80;3.70;;;5.20;99.90;;;;;;4914065;29;20071;-82
2022/01/17 03:27:16;;;;;;;24.85;2.92;;;5.20;99.90;;;;;;4913036;29;20479;-82
2022/01/17 03:29:42;;;;;;;28.98;3.63;;;5.40;99.90;;;;;;4930119;29;20087;-83
2022/01/17 03:32:07;;;;;;;23.42;3.78;;;5.30;99.90;;;;;;4913117;29;20044;-83
2022/01/17 03:34:33;;;;;;;20.55;2.53;;;5.30;99.90;;;;;;4912287;29;20051;-82
2022/01/17 03:36:59;;;;;;;25.85;3.75;;;5.40;99.90;;;;;;4912429;29;20542;-83
2022/01/17 03:39:24;;;;;;;19.80;2.80;;;6.30;99.90;;;;;;4912636;29;20130;-83
2022/01/17 03:41:50;;;;;;;24.17;3.13;;;5.40;99.90;;;;;;4897222;29;20059;-83
2022/01/17 03:44:16;;;;;;;25.88;3.17;;;5.40;99.90;;;;;;4912235;29;20056;-82
2022/01/17 03:46:41;;;;;;;24.92;3.03;;;6.20;99.90;;;;;;4912280;29;20043;-82
2022/01/17 03:49:07;;;;;;;22.20;3.38;;;5.40;99.90;;;;;;4913129;29;20111;-82
2022/01/17 03:51:33;;;;;;;28.92;2.92;;;5.60;99.90;;;;;;4904024;29;20056;-82
2022/01/17 03:53:58;;;;;;;24.77;3.15;;;5.40;99.90;;;;;;4893866;29;20052;-82
2022/01/17 03:56:24;;;;;;;20.33;2.80;;;5.50;99.90;;;;;;4896646;29;20646;-82
2022/01/17 03:58:50;;;;;;;25.98;3.47;;;5.40;99.90;;;;;;4896897;29;20563;-82
2022/01/17 04:01:15;;;;;;;21.60;2.90;;;5.40;99.90;;;;;;4897583;29;20044;-83
2022/01/17 04:03:41;;;;;;;15.75;2.70;;;5.30;99.90;;;;;;4898357;29;20127;-82
2022/01/17 04:06:07;;;;;;;31.33;4.15;;;6.50;99.90;;;;;;4896869;29;20488;-82
2022/01/17 04:08:34;;;;;;;20.50;2.95;;;6.40;99.90;;;;;;4897862;29;20060;-83
2022/01/17 04:11:00;;;;;;;27.88;4.22;;;6.40;99.90;;;;;;4897608;29;20056;-82
2022/01/17 04:13:26;;;;;;;22.23;3.58;;;5.40;99.90;;;;;;4896936;29;20047;-83
2022/01/17 04:15:51;;;;;;;12.95;2.42;;;6.70;99.90;;;;;;4897319;29;20082;-83
2022/01/17 04:18:23;;;;;;;24.55;3.40;;;6.10;99.90;;;;;;4897976;29;20105;-82
2022/01/17 04:20:48;;;;;;;18.50;2.90;;;5.90;99.90;;;;;;4896606;29;20055;-82
2022/01/17 04:23:14;;;;;;;24.73;3.85;;;5.40;99.90;;;;;;4897741;29;20052;-82
2022/01/17 04:25:42;;;;;;;19.52;3.15;;;5.30;99.90;;;;;;4896953;29;20059;-83
2022/01/17 04:28:09;;;;;;;20.80;3.00;;;5.50;99.90;;;;;;4897632;29;20083;-83
2022/01/17 04:30:36;;;;;;;24.40;3.00;;;5.60;99.90;;;;;;4897191;29;20056;-82
2022/01/17 04:33:01;;;;;;;21.13;2.90;;;5.60;99.90;;;;;;4896348;29;20193;-82
2022/01/17 04:35:29;;;;;;;23.35;3.03;;;6.30;99.90;;;;;;4896632;29;20132;-82
2022/01/17 04:38:00;;;;;;;16.80;2.70;;;5.60;99.90;;;;;;4897560;29;20386;-83
2022/01/17 04:40:26;;;;;;;23.73;3.53;;;5.60;99.90;;;;;;4913555;29;20065;-83
2022/01/17 04:42:54;;;;;;;15.80;2.97;;;6.30;99.90;;;;;;4897351;29;20060;-83
2022/01/17 04:45:21;;;;;;;20.13;3.40;;;5.70;99.90;;;;;;4897158;29;20085;-82
2022/01/17 04:47:50;;;;;;;20.33;2.75;;;6.60;99.90;;;;;;4896027;29;20071;-82
2022/01/17 04:50:25;;;;;;;20.30;2.65;;;5.80;99.90;;;;;;4896475;29;20056;-82
2022/01/17 04:52:54;;;;;;;23.60;3.00;;;5.80;99.90;;;;;;4896900;29;20465;-82
2022/01/17 04:55:21;;;;;;;23.58;3.47;;;5.80;99.90;;;;;;4913351;29;20106;-82
2022/01/17 04:57:48;;;;;;;25.27;3.47;;;5.80;99.90;;;;;;4896764;29;20071;-82
2022/01/17 05:00:17;;;;;;;25.20;3.42;;;5.90;99.90;;;;;;4897349;29;20076;-83
2022/01/17 05:02:42;;;;;;;28.92;3.40;;;5.80;99.90;;;;;;4895455;29;20444;-82
2022/01/17 05:05:10;;;;;;;28.25;3.20;;;5.80;99.90;;;;;;4896542;29;20489;-82
2022/01/17 05:07:37;;;;;;;22.25;2.90;;;6.00;99.90;;;;;;4895899;29;20386;-83
2022/01/17 05:10:06;;;;;;;21.55;3.83;;;5.90;99.90;;;;;;4895717;29;20060;-82
2022/01/17 05:12:32;;;;;;;33.95;4.55;;;5.90;99.90;;;;;;4896592;29;20060;-83
2022/01/17 05:14:59;;;;;;;30.48;4.00;;;5.90;99.90;;;;;;4895483;29;20052;-83
2022/01/17 05:17:44;;;;;;;33.58;4.40;;;6.50;99.90;;;;;;4913273;29;20180;-83
2022/01/17 05:20:11;;;;;;;27.13;4.03;;;6.00;99.90;;;;;;4881037;29;20044;-83
2022/01/17 05:22:38;;;;;;;24.17;3.75;;;6.00;99.90;;;;;;4895254;29;20428;-84
2022/01/17 05:25:08;;;;;;;19.75;2.92;;;6.00;99.90;;;;;;4896504;29;20278;-82
2022/01/17 05:27:35;;;;;;;20.15;3.30;;;6.00;99.90;;;;;;4913065;29;20058;-82
2022/01/17 05:30:04;;;;;;;28.40;5.35;;;6.00;99.90;;;;;;4895522;29;20115;-82
2022/01/17 05:32:30;;;;;;;22.67;3.85;;;6.00;99.90;;;;;;4895265;29;20457;-82
2022/01/17 05:34:55;;;;;;;27.38;3.95;;;6.80;99.90;;;;;;4913411;29;20055;-82
2022/01/17 05:37:21;;;;;;;29.67;4.03;;;6.70;99.90;;;;;;4895128;29;20625;-82
2022/01/17 05:39:47;;;;;;;25.45;3.55;;;6.10;99.90;;;;;;4896291;29;20087;-82
2022/01/17 05:42:17;;;;;;;26.17;4.13;;;6.10;99.90;;;;;;4896604;29;20052;-82
2022/01/17 05:44:44;;;;;;;25.83;3.72;;;7.00;99.90;;;;;;4895280;29;20103;-83
2022/01/17 05:47:10;;;;;;;28.92;3.78;;;6.30;99.90;;;;;;4896223;29;20464;-82
2022/01/17 05:49:36;;;;;;;30.00;4.53;;;6.80;99.90;;;;;;4896034;29;20543;-83
2022/01/17 05:52:02;;;;;;;27.92;3.60;;;7.10;99.90;;;;;;4895243;29;20508;-83
2022/01/17 05:54:28;;;;;;;28.83;5.50;;;6.10;99.90;;;;;;4895686;29;20095;-83
2022/01/17 05:56:53;;;;;;;22.98;3.95;;;7.10;99.90;;;;;;4895831;29;20064;-82
2022/01/17 05:59:19;;;;;;;24.27;4.00;;;6.30;99.90;;;;;;4895648;29;20048;-82
2022/01/17 06:01:45;;;;;;;29.20;3.78;;;6.80;99.90;;;;;;4895025;29;20521;-82
2022/01/17 06:04:10;;;;;;;34.15;4.22;;;7.20;99.90;;;;;;4895200;29;20123;-82
2022/01/17 06:06:36;;;;;;;29.33;4.30;;;6.10;99.90;;;;;;4913097;29;20086;-82
2022/01/17 06:09:02;;;;;;;23.33;3.45;;;6.10;99.90;;;;;;4895288;29;20157;-82
2022/01/17 06:11:28;;;;;;;27.05;4.88;;;6.60;99.90;;;;;;4895164;29;20732;-82
2022/01/17 06:13:54;;;;;;;30.15;4.15;;;6.50;99.90;;;;;;4895590;29;20507;-82
2022/01/17 06:16:19;;;;;;;27.13;4.18;;;6.10;99.90;;;;;;4912633;29;20652;-82
2022/01/17 06:18:45;;;;;;;32.30;4.95;;;6.10;99.90;;;;;;4894925;29;20060;-83
2022/01/17 06:21:11;;;;;;;25.70;4.13;;;7.10;99.90;;;;;;4895797;29;20055;-83
2022/01/17 06:23:36;;;;;;;28.33;4.57;;;6.10;99.90;;;;;;4895742;29;20497;-83
2022/01/17 06:26:02;;;;;;;28.92;4.00;;;6.40;99.90;;;;;;4894559;29;20048;-82
2022/01/17 06:28:28;;;;;;;32.22;4.57;;;6.30;99.90;;;;;;4895673;29;20055;-82
2022/01/17 06:30:53;;;;;;;32.00;4.45;;;6.30;99.90;;;;;;4894706;29;20073;-82
2022/01/17 06:33:19;;;;;;;32.03;4.00;;;6.60;99.90;;;;;;4909778;29;20083;-82
2022/01/17 06:35:45;;;;;;;31.83;4.80;;;6.10;99.90;;;;;;4894748;29;20144;-82
2022/01/17 06:38:11;;;;;;;29.27;4.35;;;6.50;99.90;;;;;;4909563;29;20086;-84
2022/01/17 06:40:36;;;;;;;32.85;4.25;;;6.10;99.90;;;;;;4913062;29;20514;-84
2022/01/17 06:43:04;;;;;;;33.35;5.07;;;6.10;99.90;;;;;;4914343;29;20051;-84
2022/01/17 06:45:30;;;;;;;39.63;5.93;;;6.40;99.90;;;;;;4897618;29;20047;-84
2022/01/17 06:47:56;;;;;;;34.30;5.05;;;6.10;99.90;;;;;;4898591;29;20055;-82
2022/01/17 06:50:22;;;;;;;40.92;5.47;;;6.10;99.90;;;;;;4932243;29;20051;-81
2022/01/17 06:52:48;;;;;;;41.03;6.05;;;6.10;99.90;;;;;;4933700;29;20472;-84
2022/01/17 06:55:13;;;;;;;34.25;5.55;;;6.10;99.90;;;;;;4916116;29;20056;-84
2022/01/17 06:57:39;;;;;;;42.00;6.85;;;6.10;99.90;;;;;;4916521;29;20043;-83
2022/01/17 07:00:08;;;;;;;35.13;4.90;;;6.10;99.90;;;;;;4917130;29;20396;-83
2022/01/17 07:02:33;;;;;;;43.08;4.75;;;6.10;99.90;;;;;;4931787;29;20061;-83
2022/01/17 07:05:00;;;;;;;32.53;4.35;;;6.10;99.90;;;;;;4916133;29;20047;-83
2022/01/17 07:07:26;;;;;;;36.08;4.90;;;6.10;99.90;;;;;;4932284;29;20155;-83
2022/01/17 07:09:51;;;;;;;33.85;5.38;;;6.30;99.90;;;;;;4894926;29;20508;-83
2022/01/17 07:12:17;;;;;;;38.35;5.90;;;6.10;99.90;;;;;;4908053;29;20052;-84
2022/01/17 07:14:43;;;;;;;37.35;4.93;;;6.90;99.90;;;;;;4902866;29;20059;-83
2022/01/17 07:17:10;;;;;;;39.88;5.05;;;6.10;99.90;;;;;;4897720;29;20513;-84
2022/01/17 07:19:36;;;;;;;34.50;5.90;;;6.20;99.90;;;;;;4898524;29;20090;-84
2022/01/17 07:22:03;;;;;;;36.22;5.05;;;6.10;99.90;;;;;;4912857;29;20054;-83
2022/01/17 07:24:29;;;;;;;40.60;5.60;;;6.20;99.90;;;;;;4895104;29;20043;-83
2022/01/17 07:26:55;;;;;;;40.45;5.80;;;6.20;99.90;;;;;;4907853;29;20103;-82
2022/01/17 07:29:21;;;;;;;34.53;5.07;;;6.20;99.90;;;;;;4915900;29;20043;-87
2022/01/17 07:31:46;;;;;;;38.55;4.88;;;6.30;99.90;;;;;;4896976;29;20122;-86
2022/01/17 07:34:12;;;;;;;41.80;6.30;;;6.30;99.90;;;;;;4905334;29;20496;-83
2022/01/17 07:36:38;;;;;;;43.10;5.43;;;6.70;99.90;;;;;;4915391;29;20071;-88
2022/01/17 07:39:04;;;;;;;47.95;7.45;;;6.90;99.90;;;;;;4890610;29;20456;-87
2022/01/17 07:41:29;;;;;;;41.58;7.05;;;6.40;99.90;;;;;;4882541;29;20051;-84
2022/01/17 07:44:03;;;;;;;39.78;5.68;;;6.60;99.90;;;;;;4896446;29;20075;-90
2022/01/17 07:46:49;;;;;;;42.72;6.53;;;7.50;99.90;;;;;;4882898;29;20059;-85
2022/01/17 07:49:19;;;;;;;38.17;6.10;;;6.30;99.90;;;;;;4930959;29;20122;-89
2022/01/17 07:51:48;;;;;;;49.45;6.57;;;7.60;99.90;;;;;;4899912;29;20048;-84
2022/01/17 07:54:15;;;;;;;37.10;5.05;;;7.10;99.90;;;;;;4916620;29;20358;-86
2022/01/17 07:56:43;;;;;;;41.88;6.05;;;7.20;99.90;;;;;;4915255;29;20130;-86
2022/01/17 07:59:10;;;;;;;38.97;5.72;;;6.60;99.90;;;;;;4896038;29;20051;-84
2022/01/17 08:01:37;;;;;;;37.53;5.22;;;6.20;99.90;;;;;;4887649;29;20040;-83
2022/01/17 08:04:04;;;;;;;42.85;6.53;;;7.60;99.90;;;;;;4881919;29;20524;-84
2022/01/17 08:06:30;;;;;;;40.78;5.13;;;6.70;99.90;;;;;;4881381;29;20055;-84
2022/01/17 08:08:56;;;;;;;44.35;7.10;;;7.00;99.90;;;;;;4882647;29;20048;-89
2022/01/17 08:11:27;;;;;;;39.75;5.97;;;6.70;99.90;;;;;;4881534;29;20096;-85
2022/01/17 08:13:55;;;;;;;48.00;6.68;;;7.10;99.90;;;;;;4881412;29;20087;-87
2022/01/17 08:16:21;;;;;;;35.42;5.43;;;6.80;99.90;;;;;;4882626;29;20051;-85
2022/01/17 08:18:47;;;;;;;44.83;5.88;;;7.40;99.90;;;;;;4897136;29;20070;-86
2022/01/17 08:21:13;;;;;;;49.42;6.40;;;7.30;99.90;;;;;;4889918;29;20063;-90
2022/01/17 08:23:42;;;;;;;41.25;5.45;;;7.70;99.90;;;;;;4890105;29;20047;-84
2022/01/17 08:26:11;;;;;;;44.95;6.93;;;7.80;99.90;;;;;;4911954;29;20047;-85
2022/01/17 08:28:37;;;;;;;37.03;5.88;;;8.00;99.90;;;;;;4909455;29;20043;-85
2022/01/17 08:31:54;;;;;;;46.13;6.13;;;7.00;99.90;;;;;;4890551;29;20507;-84
2022/01/17 08:34:32;;;;;;;48.63;5.97;;;6.70;99.90;;;;;;4895874;29;20059;-85
2022/01/17 08:37:02;;;;;;;50.75;6.38;;;7.00;99.90;;;;;;4881438;29;20118;-85
2022/01/17 08:39:28;;;;;;;39.22;6.85;;;7.10;99.90;;;;;;4896507;29;20052;-85
2022/01/17 08:41:54;;;;;;;39.58;6.57;;;8.00;99.90;;;;;;4898179;29;20133;-85
2022/01/17 08:44:20;;;;;;;40.58;6.00;;;7.60;99.90;;;;;;4900702;29;20099;-85
2022/01/17 08:46:46;;;;;;;47.67;6.00;;;7.60;99.90;;;;;;4883880;29;20056;-87
2022/01/17 08:49:16;;;;;;;35.85;5.50;;;7.20;99.90;;;;;;4885136;29;20496;-87
2022/01/17 08:51:42;;;;;;;39.13;7.05;;;7.60;99.90;;;;;;4900158;29;20187;-86
2022/01/17 08:54:08;;;;;;;51.95;7.15;;;8.40;99.90;;;;;;4900058;29;20131;-85
2022/01/17 08:56:34;;;;;;;50.67;6.90;;;8.00;99.90;;;;;;4900575;29;20052;-85
2022/01/17 08:59:02;;;;;;;50.58;7.15;;;8.20;99.90;;;;;;4900398;29;20399;-84
2022/01/17 09:01:28;;;;;;;38.50;6.15;;;7.40;99.90;;;;;;4884391;29;20059;-84
2022/01/17 09:03:54;;;;;;;41.33;6.93;;;8.40;99.90;;;;;;4884472;29;20040;-84
2022/01/17 09:06:32;;;;;;;52.13;6.78;;;7.50;99.90;;;;;;4884528;29;20048;-84
2022/01/17 09:08:58;;;;;;;52.22;7.10;;;7.60;99.90;;;;;;4899495;29;20055;-86
2022/01/17 09:11:24;;;;;;;52.92;7.60;;;6.60;99.90;;;;;;4900412;29;20028;-84
2022/01/17 09:13:50;;;;;;;53.97;8.25;;;7.60;99.90;;;;;;4884291;29;20055;-84
2022/01/17 09:16:19;;;;;;;43.80;7.63;;;7.60;99.90;;;;;;4883854;29;20056;-84
2022/01/17 09:18:44;;;;;;;42.40;7.00;;;8.60;99.90;;;;;;4899412;29;20056;-84
2022/01/17 09:21:10;;;;;;;45.08;5.72;;;8.00;99.90;;;;;;4898712;29;20157;-84
2022/01/17 09:23:39;;;;;;;50.47;7.60;;;7.80;99.90;;;;;;4900038;29;20109;-85
2022/01/17 09:26:05;;;;;;;57.55;7.55;;;7.80;99.90;;;;;;4900349;29;20138;-85
2022/01/17 09:28:30;;;;;;;50.15;7.97;;;8.60;99.90;;;;;;4899437;29;20131;-84
2022/01/17 09:30:56;;;;;;;49.63;7.03;;;7.90;99.90;;;;;;4899921;29;20052;-84
2022/01/17 09:33:22;;;;;;;46.47;8.82;;;8.90;99.90;;;;;;4899083;29;20052;-84
2022/01/17 09:35:48;;;;;;;50.08;7.22;;;8.00;99.90;;;;;;4898365;29;20151;-84
2022/01/17 09:38:18;;;;;;;50.75;6.53;;;8.00;99.90;;;;;;4899581;29;20048;-86
2022/01/17 09:40:53;;;;;;;46.53;7.95;;;8.00;99.90;;;;;;4899445;29;20052;-85
2022/01/17 09:43:18;;;;;;;52.45;7.07;;;8.90;99.90;;;;;;4898859;29;20061;-84
2022/01/17 09:45:44;;;;;;;48.00;7.22;;;8.50;99.90;;;;;;4899235;29;20658;-84
2022/01/17 09:48:19;;;;;;;52.50;7.88;;;8.50;99.90;;;;;;4898839;29;20039;-86
2022/01/17 09:50:57;;;;;;;50.83;8.52;;;8.80;99.90;;;;;;4903467;29;20373;-86
2022/01/17 09:53:38;;;;;;;51.33;6.68;;;8.80;99.90;;;;;;4901987;29;20127;-86
2022/01/17 09:56:07;;;;;;;51.10;7.68;;;8.20;99.90;;;;;;4917969;29;20055;-86
2022/01/17 09:58:36;;;;;;;53.40;7.57;;;8.80;99.90;;;;;;4917648;29;20091;-86
2022/01/17 10:01:04;;;;;;;51.60;7.35;;;8.70;99.90;;;;;;4918250;29;20040;-86
2022/01/17 10:03:30;;;;;;;48.58;7.28;;;8.90;99.90;;;;;;4900958;29;20051;-86
2022/01/17 10:05:56;;;;;;;61.10;8.45;;;8.30;99.90;;;;;;4902480;29;20058;-86
2022/01/17 10:08:31;;;;;;;55.92;8.70;;;8.40;99.90;;;;;;4918889;29;20418;-87
2022/01/17 10:11:01;;;;;;;48.63;7.28;;;8.40;99.90;;;;;;4916728;29;20072;-85
2022/01/17 10:13:37;;;;;;;59.05;8.05;;;8.40;99.90;;;;;;4915118;29;20056;-86
2022/01/17 10:16:11;;;;;;;59.38;7.93;;;8.40;99.90;;;;;;4917352;29;20048;-85
2022/01/17 10:18:54;;;;;;;49.67;8.48;;;8.30;99.90;;;;;;4901018;29;20166;-85
2022/01/17 10:21:33;;;;;;;44.47;7.57;;;8.40;99.90;;;;;;4917899;29;20054;-85
2022/01/17 10:34:54;;;;;;;62.67;8.48;;;9.00;99.90;;;;;;4916072;29;20134;-86
2022/01/17 10:37:22;;;;;;;59.88;8.23;;;8.50;99.90;;;;;;4917357;29;20051;-85
2022/01/17 10:40:06;;;;;;;63.22;8.82;;;8.60;99.90;;;;;;4914076;29;20563;-85
2022/01/17 10:42:40;;;;;;;47.65;8.45;;;8.70;99.90;;;;;;4898189;29;20496;-85
2022/01/17 10:45:10;;;;;;;;;;;8.70;99.90;;;;;;4898852;29;20055;-84
2022/01/17 10:47:39;;;;;;;50.30;8.10;;;8.70;99.90;;;;;;4913108;29;19957;-84
2022/01/17 10:50:13;;;;;;;56.25;9.35;;;8.70;99.90;;;;;;4897936;29;20044;-85
2022/01/17 10:52:42;;;;;;;65.38;8.57;;;8.60;99.90;;;;;;4897637;29;20052;-85
2022/01/17 10:55:16;;;;;;;59.00;8.52;;;8.60;99.90;;;;;;4898304;29;20062;-85
2022/01/17 10:57:47;;;;;;;64.60;10.15;;;8.60;99.90;;;;;;4897870;29;20043;-85
2022/01/17 11:00:17;;;;;;;65.22;10.02;;;8.70;99.90;;;;;;4882337;29;20044;-84
2022/01/17 11:02:47;;;;;;;55.03;7.80;;;8.60;99.90;;;;;;4897500;29;20059;-84
2022/01/17 11:05:14;;;;;;;65.28;8.70;;;8.60;99.90;;;;;;4896774;29;20055;-85
2022/01/17 11:07:42;;;;;;;63.47;9.85;;;8.70;99.90;;;;;;4897244;29;20052;-85
2022/01/17 11:10:18;;;;;;;56.25;8.20;;;8.70;99.90;;;;;;4897983;29;20116;-84
2022/01/17 11:12:44;;;;;;;55.80;8.70;;;8.70;99.90;;;;;;4897641;29;20488;-83
2022/01/17 11:15:12;;;;;;;67.28;9.82;;;9.50;99.90;;;;;;4897288;29;20055;-84
2022/01/17 11:17:39;;;;;;;55.38;9.18;;;8.70;99.90;;;;;;4897446;29;20469;-83
2022/01/17 11:20:08;;;;;;;61.90;10.93;;;8.70;99.90;;;;;;4897611;29;20039;-85
2022/01/17 11:22:38;;;;;;;60.28;9.70;;;8.70;99.90;;;;;;4897070;29;20405;-85
2022/01/17 11:25:06;;;;;;;63.05;10.13;;;8.80;99.90;;;;;;4897236;29;20044;-85
2022/01/17 11:27:32;;;;;;;61.53;9.93;;;8.70;99.90;;;;;;4913392;29;20095;-86
2022/01/17 11:29:58;;;;;;;60.55;9.13;;;8.80;99.90;;;;;;4896910;29;20052;-85
2022/01/17 11:32:25;;;;;;;72.35;10.00;;;9.40;99.90;;;;;;4881460;29;20060;-86
2022/01/17 11:34:53;;;;;;;59.78;9.02;;;9.30;99.90;;;;;;4896265;29;20425;-85
2022/01/17 11:37:21;;;;;;;52.45;8.45;;;8.80;99.90;;;;;;4897344;29;20048;-85
2022/01/17 11:39:48;;;;;;;60.45;9.25;;;8.90;99.90;;;;;;4897502;29;20138;-85
2022/01/17 11:42:37;;;;;;;57.95;9.45;;;8.90;99.90;;;;;;4881096;29;20055;-85
2022/01/17 11:45:23;;;;;;;56.47;9.05;;;8.90;99.90;;;;;;4897152;29;20056;-85
2022/01/17 11:47:54;;;;;;;69.15;11.18;;;8.90;99.90;;;;;;4881653;29;20055;-85
2022/01/17 11:50:28;;;;;;;61.92;10.82;;;8.90;99.90;;;;;;4896395;29;20407;-85
2022/01/17 11:52:55;;;;;;;78.85;12.20;;;8.90;99.90;;;;;;4897270;29;20060;-85
2022/01/17 11:55:41;;;;;;;55.63;9.48;;;9.60;99.90;;;;;;4897416;29;20147;-85
2022/01/17 11:58:27;;;;;;;58.63;9.32;;;9.10;99.90;;;;;;4897619;29;20083;-85
2022/01/17 12:00:57;;;;;;;63.58;11.10;;;8.90;99.90;;;;;;4897390;29;20051;-85
2022/01/17 12:03:28;;;;;;;61.25;10.25;;;8.90;99.90;;;;;;4896214;29;20048;-85
2022/01/17 12:05:56;;;;;;;70.30;9.93;;;8.90;99.90;;;;;;4896727;29;20060;-85
2022/01/17 12:08:25;;;;;;;65.00;10.00;;;8.90;99.90;;;;;;4897222;29;20064;-86
2022/01/17 12:10:57;;;;;;;60.05;9.18;;;9.60;99.90;;;;;;4881029;29;20408;-85
2022/01/17 12:13:35;;;;;;;59.30;9.70;;;8.90;99.90;;;;;;4897167;29;20044;-85
2022/01/17 12:16:07;;;;;;;55.20;9.70;;;8.90;99.90;;;;;;4897429;29;20456;-84
2022/01/17 12:19:03;;;;;;;64.78;11.02;;;8.90;99.90;;;;;;4899829;29;20047;-85
2022/01/17 12:21:35;;;;;;;72.35;10.07;;;8.90;99.90;;;;;;4900652;29;20055;-86
2022/01/17 12:24:22;;;;;;;53.85;8.90;;;8.90;99.90;;;;;;4900303;29;20052;-86
2022/01/17 12:26:57;;;;;;;48.83;9.43;;;8.90;99.90;;;;;;4884803;29;20048;-85
2022/01/17 12:29:38;;;;;;;54.85;9.20;;;8.90;99.90;;;;;;4885026;29;20044;-85
2022/01/17 12:32:07;;;;;;;71.80;9.70;;;8.90;99.90;;;;;;4883693;29;20476;-85
2022/01/17 12:34:42;;;;;;;61.90;8.43;;;8.90;99.90;;;;;;4900812;29;20094;-85
2022/01/17 12:37:29;;;;;;;58.17;9.50;;;8.90;99.90;;;;;;4900427;29;20051;-85
2022/01/17 12:40:08;;;;;;;58.17;9.45;;;9.30;99.90;;;;;;4899922;29;20048;-85
2022/01/17 12:42:53;;;;;;;68.50;10.02;;;9.20;99.90;;;;;;4900694;29;20044;-85
2022/01/17 12:45:30;;;;;;;51.17;9.23;;;8.80;99.90;;;;;;4884470;29;20153;-86
2022/01/17 12:47:58;;;;;;;66.53;10.65;;;9.20;99.90;;;;;;4899821;29;20138;-86
2022/01/17 12:50:27;;;;;;;63.85;10.07;;;8.90;99.90;;;;;;4900364;29;20095;-86
2022/01/17 12:52:55;;;;;;;53.63;8.98;;;8.90;99.90;;;;;;4899668;29;20402;-85
2022/01/17 12:55:23;;;;;;;65.40;9.20;;;8.90;99.90;;;;;;4900516;29;20187;-85
2022/01/17 12:57:49;;;;;;;60.63;9.25;;;9.40;99.90;;;;;;4899941;29;20048;-86
2022/01/17 13:00:18;;;;;;;51.53;9.25;;;8.90;99.90;;;;;;4899841;29;20042;-86
2022/01/17 13:02:47;;;;;;;60.92;10.38;;;8.90;99.90;;;;;;4902815;29;20075;-85
2022/01/17 13:05:14;;;;;;;66.80;10.35;;;9.10;99.90;;;;;;4918772;29;20134;-85
2022/01/17 13:07:41;;;;;;;70.28;10.63;;;8.90;99.90;;;;;;4902466;29;20391;-86
2022/01/17 13:10:09;;;;;;;61.42;10.15;;;8.90;99.90;;;;;;4919118;29;20055;-85
2022/01/17 13:12:35;;;;;;;59.55;10.05;;;8.90;99.90;;;;;;4903631;29;20055;-85
2022/01/17 13:15:01;;;;;;;63.42;10.27;;;9.50;99.90;;;;;;4902248;29;20413;-85